Latest Weather Observations for Canberra

IDN60801

Issued at 12:32 pm EST Wednesday 29 July 2015 (issued every 30 minutes, with the page automatically refreshed every 10 minutes)

About weather observations | Map of weather stations | Latest weather observations for NSW | Other Formats
Station Details ID: 070351 Name: CANBERRA AIRPORT Lat: -35.31 Lon: 149.20 Height: 577.05 m
Data from the previous 72 hours. | See also: Recent months at Canberra
Date/Time
EST
Temp
°C
App
Temp
°C
Dew
Point
Rel
Hum
%
Delta-T
°C
Wind Press
QNH
hPa
Press
MSL
hPa
Rain
since 9 am
mm
Dir
 
Spd
km/h
Gust
km/h
Spd
kts
Gust
kts
29/12:30pm 11.9 6.5 2.6 53 4.1 WNW 20 28 11 15 1031.9 - 0.0
29/12:00pm 10.6 7.4 2.9 59 3.4 W 9 19 5 10 1032.7 1034.2 0.0
29/11:30am 9.6 6.6 2.2 60 3.2 N 7 11 4 6 1033.3 - 0.0
29/11:00am 8.6 5.9 2.8 67 2.5 NNW 6 9 3 5 1033.7 - 0.0
29/10:30am 6.9 4.1 2.0 71 2.1 W 6 9 3 5 1034.2 - 0.0
29/10:00am 6.6 3.9 2.5 75 1.7 NNW 6 7 3 4 1034.5 - 0.0
29/09:30am 4.8 2.9 2.7 86 0.9 W 2 7 1 4 1034.4 - 0.0
29/09:00am 2.8 1.0 1.3 90 0.6 CALM 0 0 0 0 1034.6 1036.1 0.0
29/08:30am 1.0 -0.9 0.6 97 0.2 CALM 0 0 0 0 1034.8 - 0.0
29/08:00am -0.8 -3.7 -1.1 98 0.1 ENE 4 7 2 4 1034.7 - 0.0
29/07:40am -2.2 -5.3 -2.3 99 -0.1 N 4 9 2 5 1034.6 - 0.0
29/07:30am -2.9 -7.0 -3.2 98 0.0 N 9 9 5 5 1034.4 - 0.0
29/07:17am -3.0 -6.7 -3.3 98 0.0 NNW 7 7 4 4 1034.4 - 0.0
29/07:06am -3.0 -5.8 -3.4 97 0.0 N 2 7 1 4 1034.2 - 0.0
29/07:00am -2.9 -5.3 -3.3 97 0.0 CALM 0 0 0 0 1034.2 - 0.0
29/06:30am -2.0 -4.7 -2.3 98 0.0 N 2 6 1 3 1033.9 - 0.0
29/06:00am -3.3 -6.5 -3.7 97 0.0 W 4 9 2 5 1033.5 1035.1 0.0
29/05:30am -2.3 -4.7 -2.8 96 0.1 CALM 0 0 0 0 1033.2 - 0.0
29/05:00am -0.9 -4.2 -1.0 99 0.0 N 6 7 3 4 1033.1 - 0.0
29/04:30am -0.9 -3.1 -1.2 98 0.1 CALM 0 0 0 0 1033.1 - 0.0
29/04:00am -1.4 -4.0 -2.0 96 0.1 N 2 7 1 4 1033.3 - 0.0
29/03:30am -0.9 -3.1 -1.2 98 0.1 CALM 0 4 0 2 1033.0 - 0.0
29/03:00am -0.1 -3.3 -0.5 97 0.1 N 6 7 3 4 1033.1 1034.6 0.0
29/02:30am 0.6 -2.5 0.0 96 0.2 N 6 7 3 4 1033.1 - 0.0
29/02:00am 0.9 -1.4 0.3 96 0.2 SE 2 6 1 3 1033.3 - 0.0
29/01:30am 1.2 -2.0 0.6 96 0.2 S 7 9 4 5 1033.3 - 0.0
29/01:00am 1.6 -1.3 1.3 98 0.1 ESE 6 7 3 4 1033.1 - 0.0
29/12:30am 1.8 -0.3 1.4 97 0.2 ENE 2 6 1 3 1033.3 - 0.0
29/12:00am 1.5 -2.1 0.5 93 0.4 N 9 9 5 5 1033.3 1034.8 0.0
 
Date/Time
EST
Temp
°C
App
Temp
°C
Dew
Point
Rel
Hum
%
Delta-T
°C
Wind Press
QNH
hPa
Press
MSL
hPa
Rain
since 9 am
mm
Dir
 
Spd
km/h
Gust
km/h
Spd
kts
Gust
kts
28/11:30pm 2.4 0.7 1.8 96 0.2 CALM 0 0 0 0 1033.1 - 0.0
28/11:00pm 1.7 -1.4 1.3 97 0.2 SE 7 7 4 4 1033.2 - 0.0
28/10:30pm 0.3 -3.1 -0.8 92 0.4 WSW 7 7 4 4 1033.1 - 0.0
28/10:00pm 1.2 -2.5 -0.1 91 0.5 N 9 13 5 7 1033.0 - 0.0
28/09:30pm 1.4 -2.3 -0.1 90 0.6 E 9 9 5 5 1033.2 - 0.0
28/09:00pm 2.4 -1.1 1.4 93 0.4 S 9 13 5 7 1033.2 1034.7 0.0
28/08:30pm 4.8 2.0 2.2 83 1.1 NE 6 11 3 6 1032.7 - 0.0
28/08:00pm 4.1 0.3 1.5 83 1.1 NE 11 13 6 7 1032.4 - 0.0
28/07:30pm 5.7 2.0 2.5 80 1.4 N 11 13 6 7 1032.0 - 0.0
28/07:00pm 6.3 2.6 2.4 76 1.7 NNE 11 13 6 7 1031.9 - 0.0
28/06:30pm 6.4 2.3 2.1 74 1.8 N 13 17 7 9 1031.6 - 0.0
28/06:00pm 7.4 3.3 2.5 71 2.1 NNE 13 15 7 8 1031.4 1032.9 0.0
28/05:30pm 7.9 3.8 2.2 67 2.4 NNW 13 17 7 9 1031.1 - 0.0
28/05:00pm 9.9 5.4 2.3 59 3.3 N 15 17 8 9 1030.7 - 0.0
28/04:30pm 11.3 6.7 1.8 52 4.2 NNW 15 17 8 9 1030.6 - 0.0
28/04:00pm 12.2 8.1 2.1 50 4.5 NNW 13 19 7 10 1030.6 - 0.0
28/03:30pm 12.5 8.3 1.5 47 4.9 NW 13 17 7 9 1030.4 - 0.0
28/03:00pm 12.3 8.0 1.3 47 4.8 NW 13 17 7 9 1030.7 1032.2 0.0
28/02:30pm 12.0 8.1 1.1 47 4.7 NW 11 17 6 9 1030.7 - 0.0
28/02:00pm 11.9 7.8 0.1 44 5.0 NW 11 15 6 8 1030.8 - 0.0
28/01:30pm 12.0 8.4 0.8 46 4.8 WNW 9 15 5 8 1031.0 - 0.0
28/01:00pm 11.7 7.8 1.4 49 4.5 W 11 15 6 8 1031.4 - 0.0
28/12:30pm 10.8 7.1 0.2 48 4.5 WNW 9 17 5 9 1031.9 - 0.0
28/12:00pm 10.5 7.2 2.4 57 3.5 WSW 9 13 5 7 1032.4 1033.9 0.0
28/11:30am 9.4 6.5 2.7 63 3.0 W 7 11 4 6 1032.9 - 0.0
28/11:00am 8.3 5.5 2.3 66 2.6 W 6 9 3 5 1033.2 - 0.0
28/10:30am 7.2 4.5 2.5 72 2.0 NW 6 9 3 5 1033.4 - 0.0
28/10:00am 5.9 3.2 2.5 79 1.4 WNW 6 9 3 5 1033.6 - 0.0
28/09:30am 4.5 1.5 1.9 83 1.1 NNW 7 9 4 5 1033.6 - 0.0
28/09:00am 2.7 0.8 0.8 87 0.7 CALM 0 6 0 3 1033.5 1035.1 0.0
28/08:30am 0.9 -2.2 -0.1 93 0.4 N 6 9 3 5 1033.2 - 0.0
28/08:00am -1.2 -4.7 -1.6 97 0.1 S 7 11 4 6 1032.8 - 0.0
28/07:30am -3.4 -7.0 -3.9 96 0.0 S 6 9 3 5 1032.2 - 0.0
28/07:00am -3.5 -7.3 -3.9 97 0.0 SE 7 11 4 6 1031.8 - 0.0
28/06:30am -3.6 -7.4 -4.1 96 0.0 SSW 7 9 4 5 1031.4 - 0.0
28/06:00am -3.5 -7.1 -4.0 96 0.0 E 6 7 3 4 1031.0 1032.5 0.0
28/05:30am -2.9 -6.1 -3.6 95 0.1 WSW 4 6 2 3 1030.9 - 0.0
28/05:00am -2.1 -5.8 -2.6 96 0.1 SE 7 9 4 5 1030.6 - 0.0
28/04:30am -2.6 -7.1 -3.4 94 0.2 SE 11 13 6 7 1030.3 - 0.0
28/04:00am -2.7 -6.5 -4.1 90 0.3 S 7 9 4 5 1029.9 - 0.0
28/03:30am 1.0 -1.1 -0.5 90 0.6 CALM 0 0 0 0 1029.7 - 0.0
28/03:00am 1.2 -2.0 -0.6 88 0.7 N 6 7 3 4 1029.4 1030.9 0.0
28/02:30am 0.5 -2.8 -1.3 88 0.7 NNW 6 7 3 4 1029.5 - 0.0
28/02:00am 0.1 -3.8 -1.2 91 0.5 E 9 13 5 7 1029.5 - 0.0
28/01:30am 1.7 -1.6 -0.1 88 0.7 NW 7 11 4 6 1029.4 - 0.0
28/01:00am 1.6 -2.5 -0.3 87 0.7 NNW 11 15 6 8 1029.4 - 0.0
28/12:30am 1.0 -3.6 -0.8 88 0.7 NNW 13 15 7 8 1029.3 - 0.0
28/12:00am 1.5 -2.3 -0.6 86 0.8 NNW 9 15 5 8 1029.3 1030.8 0.0
 
Date/Time
EST
Temp
°C
App
Temp
°C
Dew
Point
Rel
Hum
%
Delta-T
°C
Wind Press
QNH
hPa
Press
MSL
hPa
Rain
since 9 am
mm
Dir
 
Spd
km/h
Gust
km/h
Spd
kts
Gust
kts
27/11:30pm 1.9 -2.6 0.0 87 0.7 N 13 17 7 9 1029.4 - 0.0
27/11:00pm 2.0 -3.3 -0.7 82 1.0 NNW 17 24 9 13 1029.6 - 0.0
27/10:30pm 2.8 -2.4 0.2 83 1.0 NW 17 20 9 11 1029.5 - 0.0
27/10:00pm 3.2 -2.9 0.3 81 1.1 NW 22 28 12 15 1029.2 - 0.0
27/09:30pm 3.2 -2.0 0.3 81 1.1 NNW 17 22 9 12 1029.2 - 0.0
27/09:00pm 2.8 -2.0 -0.1 81 1.1 NNW 15 19 8 10 1028.9 1030.3 0.0
27/08:30pm 2.9 -2.0 -0.2 80 1.2 NW 15 20 8 11 1028.9 - 0.0
27/08:00pm 3.1 -2.7 -0.2 79 1.3 WNW 20 26 11 14 1028.8 - 0.0
27/07:30pm 2.7 -2.5 -0.2 81 1.1 NNW 17 19 9 10 1028.8 - 0.0
27/07:00pm 3.7 -1.5 -0.1 76 1.5 N 17 19 9 10 1028.3 - 0.0
27/06:30pm 4.3 -1.6 -0.5 71 1.9 NW 20 28 11 15 1027.8 - 0.0
27/06:00pm 5.6 -0.2 0.2 68 2.1 WNW 20 28 11 15 1027.2 1028.6 0.0
27/05:30pm 5.9 0.1 0.0 66 2.4 WNW 20 28 11 15 1026.8 - 0.0
27/05:00pm 7.0 1.2 -0.2 60 2.9 W 20 24 11 13 1026.3 - 0.0
27/04:30pm 8.5 1.3 -2.4 46 4.2 WSW 26 33 14 18 1025.7 - 0.0
27/04:00pm 9.5 1.8 -2.8 42 4.8 WSW 28 39 15 21 1025.4 - 0.0
27/03:30pm 10.1 2.9 -2.2 42 4.9 W 26 33 14 18 1025.1 - 0.0
27/03:00pm 10.1 2.1 -2.2 42 4.8 WSW 30 39 16 21 1024.9 1026.3 0.0
27/02:30pm 10.2 2.1 -2.8 40 5.1 WSW 30 41 16 22 1024.8 - 0.0
27/02:00pm 10.5 2.9 -2.5 40 5.1 WSW 28 37 15 20 1024.4 - 0.0
27/01:30pm 10.8 4.0 -2.2 40 5.2 WSW 24 37 13 20 1024.2 - 0.0
27/01:00pm 10.0 3.2 -2.0 43 4.8 NW 24 33 13 18 1024.2 - 0.0
27/12:30pm 9.7 2.2 -1.6 45 4.5 WNW 28 37 15 20 1024.4 - 0.0
27/12:00pm 9.2 2.4 -1.8 46 4.3 WNW 24 32 13 17 1024.5 1025.9 0.0
27/11:30am 9.0 1.9 -1.4 48 4.1 WNW 26 35 14 19 1024.8 - 0.0
27/11:00am 8.0 1.1 -2.3 48 4.0 WNW 24 32 13 17 1025.1 - 0.0
27/10:30am 7.1 0.6 -2.1 52 3.5 WNW 22 37 12 20 1025.0 - 0.0
27/10:00am 6.7 -0.5 -1.9 54 3.3 WNW 26 35 14 19 1024.9 - 0.0
27/09:30am 6.0 -0.9 -2.3 55 3.1 WNW 24 35 13 19 1024.4 - 0.0
27/09:00am 5.6 -1.6 -2.2 57 2.9 WNW 26 35 14 19 1024.0 1025.4 0.0
27/08:30am 4.4 -3.1 -1.4 66 2.2 NW 28 37 15 20 1023.8 - 0.0
27/08:00am 2.8 -4.0 -1.7 72 1.7 N 24 30 13 16 1023.4 - 0.0
27/07:30am 2.3 -4.2 -2.4 71 1.7 NW 22 30 12 16 1023.2 - 0.0
27/07:00am 2.0 -4.0 -2.7 71 1.7 NNW 19 26 10 14 1022.8 - 0.0
27/06:30am 2.2 -4.3 -2.7 70 1.7 NW 22 30 12 16 1022.1 - 0.0
27/06:00am 3.1 -5.9 -3.0 64 2.2 WNW 35 48 19 26 1021.4 1022.7 0.0
27/05:53am 3.2 -4.5 -2.7 65 2.1 W 28 48 15 26 1021.2 - 0.0
27/05:30am 2.5 -3.7 -3.0 67 2.0 N 20 26 11 14 1021.5 - 0.0
27/05:00am 2.3 -4.6 -2.8 69 1.8 WNW 24 33 13 18 1021.3 - 0.0
27/04:30am 2.5 -3.4 -2.6 69 1.8 NE 19 20 10 11 1021.1 - 0.0
27/04:00am 2.7 -4.2 -2.8 67 2.0 N 24 26 13 14 1020.8 - 0.0
27/03:30am 2.8 -3.3 -2.5 68 1.9 N 20 28 11 15 1020.8 - 0.0
27/03:00am 2.6 -3.4 -3.3 65 2.1 NW 19 26 10 14 1020.8 1022.2 0.0
27/02:30am 2.2 -3.4 -2.9 69 1.8 NW 17 24 9 13 1020.8 - 0.0
27/02:00am 2.3 -4.2 -2.2 72 1.6 NW 22 30 12 16 1020.8 - 0.0
27/01:30am 2.9 -4.7 -1.8 71 1.7 WNW 28 37 15 20 1020.5 - 0.0
27/01:00am 4.0 -3.2 -2.2 64 2.3 WNW 26 37 14 20 1020.3 - 0.0
27/12:30am 4.2 -1.7 -2.2 63 2.4 WNW 19 30 10 16 1020.6 - 0.0
27/12:00am 4.8 -2.8 -2.1 61 2.6 WNW 28 41 15 22 1020.2 1021.5 0.0
 
Date/Time
EST
Temp
°C
App
Temp
°C
Dew
Point
Rel
Hum
%
Delta-T
°C
Wind Press
QNH
hPa
Press
MSL
hPa
Rain
since 9 am
mm
Dir
 
Spd
km/h
Gust
km/h
Spd
kts
Gust
kts
26/11:30pm 4.5 -0.6 -1.9 63 2.4 NNW 15 33 8 18 1020.6 - 0.0
26/11:00pm 4.7 -0.4 -1.7 63 2.4 N 15 19 8 10 1020.8 - 0.0
26/10:30pm 4.8 -2.8 -1.8 62 2.5 WNW 28 43 15 23 1020.1 - 0.0
26/10:00pm 4.5 -2.7 -1.9 63 2.4 NW 26 39 14 21 1020.1 - 0.0
26/09:30pm 5.0 -1.9 -2.8 57 2.9 WNW 24 33 13 18 1019.8 - 0.0
26/09:00pm 5.3 -0.9 -2.8 56 3.0 W 20 33 11 18 1019.9 1021.2 0.0
26/08:30pm 5.3 -2.7 -2.3 58 2.8 W 30 39 16 21 1019.6 - 0.0
26/08:01pm 5.3 -2.7 -2.0 59 2.8 W 30 50 16 27 1018.9 - 0.0
26/08:00pm 5.4 -2.6 -2.0 59 2.8 W 30 43 16 23 1018.9 - 0.0
26/07:30pm 5.0 -1.6 -0.4 68 2.1 WNW 24 33 13 18 1018.1 - 0.0
26/07:00pm 5.5 -1.5 -0.5 65 2.4 W 26 37 14 20 1017.9 - 0.0
26/06:30pm 5.0 -0.7 0.6 73 1.8 WNW 20 28 11 15 1017.4 - 0.0
26/06:06pm 4.6 -3.0 0.6 75 1.6 W 30 48 16 26 1017.0 - 0.0
26/06:00pm 4.9 -3.7 0.5 73 1.8 W 35 50 19 27 1017.0 1018.3 0.0
26/05:42pm 5.7 -2.9 0.1 67 2.2 WNW 35 56 19 30 1016.8 - 0.0
26/05:30pm 5.8 -1.5 -0.3 65 2.4 WNW 28 39 15 21 1016.4 - 0.0
26/05:00pm 6.0 -1.7 0.1 66 2.4 WNW 30 41 16 22 1016.0 - 0.0
26/04:30pm 7.4 -2.0 -0.3 58 3.1 WNW 39 59 21 32 1015.2 - 0.0
26/04:00pm 8.0 -0.6 0.0 57 3.3 WNW 35 54 19 29 1015.0 - 0.0
26/03:54pm 7.5 -0.6 0.0 59 3.0 WNW 32 50 17 27 1015.0 - 0.0
26/03:30pm 7.1 -1.0 -0.1 60 2.9 WNW 32 48 17 26 1014.8 - 0.0
26/03:00pm 7.9 -0.8 2.0 66 2.5 W 37 52 20 28 1014.5 1015.8 0.0
26/02:41pm 8.8 1.1 2.4 64 2.8 WNW 32 50 17 27 1014.0 - 0.0
26/02:30pm 9.2 1.0 2.5 63 2.9 WNW 35 48 19 26 1013.8 - 0.0
26/02:08pm 9.4 1.6 2.9 64 2.9 WNW 33 54 18 29 1013.5 - 0.0
26/02:00pm 9.7 2.0 3.4 65 2.8 WNW 33 48 18 26 1013.5 - 0.0
26/01:30pm 9.0 2.4 5.9 81 1.5 NW 30 41 16 22 1013.5 - 0.0
26/01:00pm 9.7 1.0 5.9 77 1.8 NW 41 54 22 29 1013.4 - 0.0

Other Formats:

Comma delimited format used in spreadsheet applications
http://www.bom.gov.au/fwo/IDN60801/IDN60801.94926.axf

JavaScript Object Notation format (JSON) in row-major order
http://www.bom.gov.au/fwo/IDN60801/IDN60801.94926.json